Time;durP1;ratioP1;P1;durP2;ratioP2;P2;SDS_P1;SDS_P2;PMS_P1;PMS_P2;Temp;Humidity;BMP_temperature;BMP_pressure;BME280_temperature;BME280_humidity;BME280_pressure;Samples;Min_cycle;Max_cycle;Signal;HPM_P1;HPM_P2
2023/04/24 00:02:19;;;;;;;12.07;9.90;;;;;;;;;;5031009;28;20188;-69
2023/04/24 00:04:46;;;;;;;10.70;9.10;;;;;;;;;;5013798;28;20547;-69
2023/04/24 00:07:12;;;;;;;10.47;8.80;;;;;;;;;;5031237;28;20186;-69
2023/04/24 00:09:39;;;;;;;9.90;8.73;;;;;;;;;;5031250;28;20612;-69
2023/04/24 00:12:06;;;;;;;11.23;8.93;;;;;;;;;;5030987;28;20195;-69
2023/04/24 00:14:34;;;;;;;10.17;9.00;;;;;;;;;;5030982;28;20203;-69
2023/04/24 00:17:02;;;;;;;11.87;10.60;;;;;;;;;;5030694;28;20250;-69
2023/04/24 00:19:29;;;;;;;12.00;10.70;;;;;;;;;;5013528;28;20187;-69
2023/04/24 00:21:55;;;;;;;15.93;14.37;;;;;;;;;;4997336;28;20278;-69
2023/04/24 00:24:22;;;;;;;12.33;10.73;;;;;;;;;;5030839;28;20187;-69
2023/04/24 00:26:49;;;;;;;10.23;8.33;;;;;;;;;;5030808;28;20616;-69
2023/04/24 00:29:15;;;;;;;9.27;8.00;;;;;;;;;;5030256;28;20551;-69
2023/04/24 00:31:42;;;;;;;10.60;8.80;;;;;;;;;;5012630;28;20601;-69
2023/04/24 00:34:10;;;;;;;21.97;17.53;;;;;;;;;;5030852;28;20637;-69
2023/04/24 00:36:37;;;;;;;26.83;22.50;;;;;;;;;;5030654;28;20616;-69
2023/04/24 00:39:03;;;;;;;29.63;24.20;;;;;;;;;;5030639;28;20713;-69
2023/04/24 00:41:31;;;;;;;29.73;24.10;;;;;;;;;;5030463;28;20210;-69
2023/04/24 00:43:57;;;;;;;30.27;24.23;;;;;;;;;;4996673;28;20555;-69
2023/04/24 00:46:24;;;;;;;34.93;26.03;;;;;;;;;;5012991;28;20179;-69
2023/04/24 00:48:51;;;;;;;38.40;26.73;;;;;;;;;;4996557;28;20274;-69
2023/04/24 00:51:17;;;;;;;33.67;26.23;;;;;;;;;;4996524;28;20282;-69
2023/04/24 00:53:44;;;;;;;33.80;26.00;;;;;;;;;;5030253;28;20197;-69
2023/04/24 00:56:11;;;;;;;37.43;26.10;;;;;;;;;;5030373;28;20846;-69
2023/04/24 00:58:39;;;;;;;35.70;27.13;;;;;;;;;;5030082;28;20180;-69
2023/04/24 01:01:07;;;;;;;37.57;27.80;;;;;;;;;;4996496;28;20725;-68
2023/04/24 01:03:34;;;;;;;38.07;27.97;;;;;;;;;;5012795;28;20594;-69
2023/04/24 01:06:01;;;;;;;39.60;27.37;;;;;;;;;;4994448;28;20208;-69
2023/04/24 01:08:28;;;;;;;44.30;28.30;;;;;;;;;;5012571;28;20234;-69
2023/04/24 01:10:55;;;;;;;40.77;27.83;;;;;;;;;;5030047;28;20191;-69
2023/04/24 01:13:23;;;;;;;42.13;26.87;;;;;;;;;;4996272;28;20200;-69
2023/04/24 01:15:49;;;;;;;41.93;27.47;;;;;;;;;;5012401;28;20176;-69
2023/04/24 01:18:16;;;;;;;44.13;28.03;;;;;;;;;;5029824;28;20548;-69
2023/04/24 01:20:44;;;;;;;40.63;27.00;;;;;;;;;;5029953;28;20274;-69
2023/04/24 01:23:11;;;;;;;43.80;26.13;;;;;;;;;;4996059;28;20202;-69
2023/04/24 01:25:39;;;;;;;46.87;27.87;;;;;;;;;;5029915;28;20179;-69
2023/04/24 01:28:05;;;;;;;46.67;26.60;;;;;;;;;;5011974;28;20202;-69
2023/04/24 01:30:32;;;;;;;45.00;25.30;;;;;;;;;;5029582;28;20184;-69
2023/04/24 01:32:59;;;;;;;42.30;26.57;;;;;;;;;;5029674;28;20515;-69
2023/04/24 01:35:25;;;;;;;41.27;26.07;;;;;;;;;;4995691;28;20223;-69
2023/04/24 01:37:52;;;;;;;42.73;25.00;;;;;;;;;;5029558;28;20171;-69
2023/04/24 01:40:21;;;;;;;44.03;26.03;;;;;;;;;;5010853;28;20195;-69
2023/04/24 02:14:38;;;;;;;48.57;27.17;;;;;;;;;;5029149;28;20707;-69
2023/04/24 02:17:09;;;;;;;53.20;27.10;;;;;;;;;;5011333;28;20195;-68
2023/04/24 02:19:36;;;;;;;53.63;27.07;;;;;;;;;;5011523;28;20187;-69
2023/04/24 02:22:02;;;;;;;62.83;30.20;;;;;;;;;;5029476;28;20647;-69
2023/04/24 02:24:29;;;;;;;63.20;28.23;;;;;;;;;;5011327;28;20199;-69
2023/04/24 02:26:56;;;;;;;57.97;28.47;;;;;;;;;;5029101;28;20740;-69
2023/04/24 02:29:22;;;;;;;59.47;26.83;;;;;;;;;;5011486;28;20724;-69
2023/04/24 02:31:49;;;;;;;64.37;27.07;;;;;;;;;;5029193;28;20179;-68
2023/04/24 02:34:16;;;;;;;61.37;27.17;;;;;;;;;;5011495;28;20207;-68
2023/04/24 02:36:42;;;;;;;57.40;25.90;;;;;;;;;;5029423;28;20184;-68
2023/04/24 02:39:09;;;;;;;60.70;26.40;;;;;;;;;;5011398;28;20719;-70
2023/04/24 02:41:38;;;;;;;61.97;28.37;;;;;;;;;;4972306;28;20201;-69
2023/04/24 02:44:04;;;;;;;56.60;28.30;;;;;;;;;;4989894;28;20185;-68
2023/04/24 02:46:31;;;;;;;67.90;28.13;;;;;;;;;;4972045;28;20211;-68
2023/04/24 02:48:58;;;;;;;58.93;26.57;;;;;;;;;;4989771;28;20675;-69
2023/04/24 02:51:25;;;;;;;59.10;26.17;;;;;;;;;;4957386;28;20226;-68
2023/04/24 02:53:52;;;;;;;57.83;24.63;;;;;;;;;;4992881;28;20196;-69
2023/04/24 02:56:19;;;;;;;63.10;26.07;;;;;;;;;;4975704;28;20498;-69
2023/04/24 02:58:46;;;;;;;72.80;25.90;;;;;;;;;;4975569;28;20266;-68
2023/04/24 03:01:12;;;;;;;74.43;26.13;;;;;;;;;;4976100;28;20213;-69
2023/04/24 03:03:39;;;;;;;80.00;25.57;;;;;;;;;;4993097;28;20653;-68
2023/04/24 03:06:07;;;;;;;72.83;25.10;;;;;;;;;;4992955;28;20219;-69
2023/04/24 03:08:34;;;;;;;75.60;25.83;;;;;;;;;;4975322;28;20616;-69
2023/04/24 03:11:01;;;;;;;61.90;24.30;;;;;;;;;;4975674;28;20189;-69
2023/04/24 03:13:27;;;;;;;69.40;27.60;;;;;;;;;;4975134;28;20681;-68
2023/04/24 03:15:55;;;;;;;76.80;28.37;;;;;;;;;;4992787;28;20204;-69
2023/04/24 03:18:22;;;;;;;71.43;28.57;;;;;;;;;;4987068;28;20244;-68
2023/04/24 03:20:51;;;;;;;62.70;28.10;;;;;;;;;;4994861;28;20207;-69
2023/04/24 03:23:18;;;;;;;66.60;25.47;;;;;;;;;;4994920;28;20202;-69
2023/04/24 03:25:48;;;;;;;55.37;24.37;;;;;;;;;;5027332;28;20204;-69
2023/04/24 03:28:15;;;;;;;61.67;25.67;;;;;;;;;;4994648;28;20207;-69
2023/04/24 03:30:47;;;;;;;54.13;23.30;;;;;;;;;;4994573;28;20220;-68
2023/04/24 03:33:15;;;;;;;56.77;22.97;;;;;;;;;;4994398;28;20200;-69
2023/04/24 03:35:52;;;;;;;52.83;22.13;;;;;;;;;;4994486;28;20243;-68
2023/04/24 03:38:20;;;;;;;52.27;21.37;;;;;;;;;;4994456;28;20196;-68
2023/04/24 03:41:10;;;;;;;52.87;20.90;;;;;;;;;;5019889;28;20671;-68
2023/04/24 03:43:45;;;;;;;48.67;20.90;;;;;;;;;;5013852;28;20272;-69
2023/04/24 03:46:12;;;;;;;49.47;23.40;;;;;;;;;;5013929;28;20203;-69
2023/04/24 03:48:43;;;;;;;54.73;21.80;;;;;;;;;;5014660;28;20180;-69
2023/04/24 03:51:10;;;;;;;55.13;22.00;;;;;;;;;;5013830;28;20201;-69
2023/04/24 03:53:40;;;;;;;48.50;22.47;;;;;;;;;;5013660;28;20207;-68
2023/04/24 03:56:09;;;;;;;43.27;21.10;;;;;;;;;;5013725;28;20293;-69
2023/04/24 03:58:36;;;;;;;42.20;19.97;;;;;;;;;;5013371;28;20195;-69
2023/04/24 04:01:07;;;;;;;40.67;20.40;;;;;;;;;;5029023;28;20254;-69
2023/04/24 04:03:56;;;;;;;40.87;21.07;;;;;;;;;;5030213;28;20211;-69
2023/04/24 04:06:26;;;;;;;40.93;20.50;;;;;;;;;;5013538;28;20254;-69
2023/04/24 04:08:54;;;;;;;42.67;19.50;;;;;;;;;;4997443;28;20203;-69
2023/04/24 04:11:21;;;;;;;39.57;18.60;;;;;;;;;;5013449;28;20198;-69
2023/04/24 04:13:49;;;;;;;37.87;17.00;;;;;;;;;;5013421;28;20191;-69
2023/04/24 04:16:19;;;;;;;36.93;17.97;;;;;;;;;;5013308;28;20223;-69
2023/04/24 04:18:48;;;;;;;33.30;16.10;;;;;;;;;;5013113;28;20215;-69
2023/04/24 04:21:16;;;;;;;37.70;16.30;;;;;;;;;;5013054;28;20211;-69
2023/04/24 04:23:43;;;;;;;35.07;16.10;;;;;;;;;;5013100;28;20191;-69
2023/04/24 04:26:19;;;;;;;32.97;16.30;;;;;;;;;;5013129;28;20202;-69
2023/04/24 04:29:03;;;;;;;32.50;16.27;;;;;;;;;;5012940;28;20195;-69
2023/04/24 04:31:31;;;;;;;34.70;17.17;;;;;;;;;;5012967;28;20199;-69
2023/04/24 04:34:02;;;;;;;32.47;16.50;;;;;;;;;;4997467;28;20202;-69
2023/04/24 04:36:32;;;;;;;33.70;16.27;;;;;;;;;;5013138;28;20227;-69
2023/04/24 04:39:07;;;;;;;35.00;18.13;;;;;;;;;;4997891;28;20201;-69
2023/04/24 04:42:00;;;;;;;34.10;17.83;;;;;;;;;;5008566;28;20202;-69
2023/04/24 04:44:36;;;;;;;36.10;17.93;;;;;;;;;;4977938;28;20192;-69
2023/04/24 04:47:05;;;;;;;35.13;17.37;;;;;;;;;;5010821;28;20200;-68
2023/04/24 04:49:34;;;;;;;33.97;17.87;;;;;;;;;;5009317;28;20230;-68
2023/04/24 04:52:03;;;;;;;35.83;17.97;;;;;;;;;;4993315;28;20200;-68
2023/04/24 04:54:31;;;;;;;37.10;19.83;;;;;;;;;;5009057;28;20262;-68
2023/04/24 04:56:57;;;;;;;37.77;19.40;;;;;;;;;;5009276;28;20577;-69
2023/04/24 04:59:24;;;;;;;40.83;19.77;;;;;;;;;;4993011;28;20599;-68
2023/04/24 05:01:57;;;;;;;33.83;17.90;;;;;;;;;;5009267;28;20204;-69
2023/04/24 05:04:25;;;;;;;39.57;19.53;;;;;;;;;;5009371;28;20652;-69
2023/04/24 05:06:52;;;;;;;39.67;19.60;;;;;;;;;;5009493;28;20738;-69
2023/04/24 05:09:20;;;;;;;32.93;17.70;;;;;;;;;;5009162;28;20567;-69
2023/04/24 05:11:52;;;;;;;32.53;18.20;;;;;;;;;;4977529;28;20314;-69
2023/04/24 05:14:20;;;;;;;30.60;18.20;;;;;;;;;;5008750;28;20682;-69
2023/04/24 05:16:48;;;;;;;32.57;18.47;;;;;;;;;;5008904;28;20203;-69
2023/04/24 05:19:19;;;;;;;36.80;19.20;;;;;;;;;;4989583;28;20207;-69
2023/04/24 05:21:46;;;;;;;32.80;18.97;;;;;;;;;;4973424;28;20173;-69
2023/04/24 05:24:13;;;;;;;40.63;20.50;;;;;;;;;;4973000;28;20219;-69
2023/04/24 05:26:51;;;;;;;41.50;21.93;;;;;;;;;;4989060;28;20919;-69
2023/04/24 05:29:26;;;;;;;36.00;19.57;;;;;;;;;;4973146;28;20292;-69
2023/04/24 05:31:53;;;;;;;34.23;19.70;;;;;;;;;;4972864;28;20653;-69
2023/04/24 05:34:20;;;;;;;31.30;17.07;;;;;;;;;;4972947;28;20207;-69
2023/04/24 05:36:51;;;;;;;30.80;17.23;;;;;;;;;;4957898;28;20232;-69
2023/04/24 05:39:19;;;;;;;26.43;16.73;;;;;;;;;;4973970;28;20207;-69
2023/04/24 05:41:46;;;;;;;28.50;16.40;;;;;;;;;;5008500;28;20609;-69
2023/04/24 05:44:13;;;;;;;27.87;16.83;;;;;;;;;;5009813;28;20172;-69
2023/04/24 05:46:41;;;;;;;26.93;16.13;;;;;;;;;;4992507;28;20212;-69
2023/04/24 05:49:09;;;;;;;28.13;17.03;;;;;;;;;;4992811;28;20258;-69
2023/04/24 05:51:36;;;;;;;27.03;16.17;;;;;;;;;;4992076;28;20192;-70
2023/04/24 05:54:03;;;;;;;28.43;16.57;;;;;;;;;;5009764;28;20195;-70
2023/04/24 05:56:30;;;;;;;28.50;16.47;;;;;;;;;;5009754;28;20216;-70
2023/04/24 05:58:58;;;;;;;20.80;14.67;;;;;;;;;;4992149;28;20557;-70
2023/04/24 06:01:25;;;;;;;22.93;14.83;;;;;;;;;;5009749;28;20271;-70
2023/04/24 06:04:04;;;;;;;23.17;15.20;;;;;;;;;;5008952;28;20203;-70
2023/04/24 06:06:32;;;;;;;25.60;15.57;;;;;;;;;;5009643;28;20250;-70
2023/04/24 06:08:59;;;;;;;25.63;15.50;;;;;;;;;;4992257;28;20202;-70
2023/04/24 06:11:29;;;;;;;21.97;14.10;;;;;;;;;;4991904;28;20626;-70
2023/04/24 06:13:56;;;;;;;24.37;14.40;;;;;;;;;;5008199;28;20283;-69
2023/04/24 06:16:46;;;;;;;23.80;15.27;;;;;;;;;;4990278;28;21118;-69
2023/04/24 06:19:29;;;;;;;26.90;16.03;;;;;;;;;;4992007;28;20555;-70
2023/04/24 06:21:56;;;;;;;24.70;15.10;;;;;;;;;;5009723;28;20267;-69
2023/04/24 06:24:25;;;;;;;25.03;15.50;;;;;;;;;;4991705;28;20196;-70
2023/04/24 06:26:52;;;;;;;27.20;16.30;;;;;;;;;;4993801;28;20640;-70
2023/04/24 06:29:19;;;;;;;28.23;16.73;;;;;;;;;;4995841;28;20192;-70
2023/04/24 06:31:46;;;;;;;25.90;16.30;;;;;;;;;;5013290;28;20764;-70
2023/04/24 06:34:12;;;;;;;28.93;16.93;;;;;;;;;;5013569;28;20195;-70
2023/04/24 06:36:40;;;;;;;29.97;16.90;;;;;;;;;;5013011;28;20215;-70
2023/04/24 06:39:06;;;;;;;29.13;16.77;;;;;;;;;;5013362;28;20198;-70
2023/04/24 06:41:33;;;;;;;28.40;18.07;;;;;;;;;;5007999;28;20192;-70
2023/04/24 06:44:00;;;;;;;37.23;18.40;;;;;;;;;;5013308;28;20509;-69
2023/04/24 06:46:27;;;;;;;26.33;16.07;;;;;;;;;;5013078;28;20254;-70
2023/04/24 06:48:55;;;;;;;26.73;15.63;;;;;;;;;;5011960;28;20188;-70
2023/04/24 06:51:25;;;;;;;28.23;16.47;;;;;;;;;;5012734;28;20294;-70
2023/04/24 06:53:52;;;;;;;28.73;15.50;;;;;;;;;;5012759;28;20180;-69
2023/04/24 06:56:20;;;;;;;30.40;16.67;;;;;;;;;;5012856;28;20273;-69
2023/04/24 06:58:46;;;;;;;26.07;15.23;;;;;;;;;;5012787;28;20202;-69
2023/04/24 07:01:13;;;;;;;27.90;16.10;;;;;;;;;;5012824;28;20532;-69
2023/04/24 07:03:40;;;;;;;23.63;15.27;;;;;;;;;;5011413;28;20202;-69
2023/04/24 07:06:07;;;;;;;26.47;16.13;;;;;;;;;;4994843;28;20196;-69
2023/04/24 07:08:35;;;;;;;24.13;16.50;;;;;;;;;;5011319;28;20275;-69
2023/04/24 07:11:02;;;;;;;25.40;16.40;;;;;;;;;;5012294;28;20206;-69
2023/04/24 07:13:29;;;;;;;26.17;15.73;;;;;;;;;;5012594;28;20271;-69
2023/04/24 07:15:56;;;;;;;27.93;16.17;;;;;;;;;;5012320;28;20634;-69
2023/04/24 07:18:22;;;;;;;23.93;15.57;;;;;;;;;;5006613;28;20235;-69
2023/04/24 07:20:52;;;;;;;27.27;15.70;;;;;;;;;;5031765;28;20203;-69
2023/04/24 07:23:19;;;;;;;28.47;15.20;;;;;;;;;;5014074;28;20695;-69
2023/04/24 07:25:46;;;;;;;25.03;14.80;;;;;;;;;;5014538;28;20195;-69
2023/04/24 07:28:13;;;;;;;27.57;14.50;;;;;;;;;;5014527;28;20218;-69
2023/04/24 07:30:40;;;;;;;26.33;14.40;;;;;;;;;;5014010;28;20573;-69
2023/04/24 07:33:06;;;;;;;22.03;14.77;;;;;;;;;;5031656;28;20740;-70
2023/04/24 07:35:35;;;;;;;24.27;14.07;;;;;;;;;;5031628;28;20298;-69
2023/04/24 07:38:02;;;;;;;24.37;14.87;;;;;;;;;;5014121;28;20188;-69
2023/04/24 07:40:28;;;;;;;24.23;15.07;;;;;;;;;;5014136;28;20191;-70
2023/04/24 07:42:55;;;;;;;26.43;15.37;;;;;;;;;;5031064;28;20598;-70
2023/04/24 07:45:23;;;;;;;26.20;15.57;;;;;;;;;;5031641;28;20187;-70
2023/04/24 07:47:50;;;;;;;29.67;15.43;;;;;;;;;;5031390;28;20202;-70
2023/04/24 07:50:17;;;;;;;30.03;15.23;;;;;;;;;;5014222;28;20183;-68
2023/04/24 07:52:43;;;;;;;28.97;15.90;;;;;;;;;;5031525;28;20264;-69
2023/04/24 07:55:35;;;;;;;27.60;16.03;;;;;;;;;;5030948;28;20196;-69
2023/04/24 07:58:02;;;;;;;28.60;16.70;;;;;;;;;;5031238;28;20194;-69
2023/04/24 08:00:28;;;;;;;29.87;16.23;;;;;;;;;;5013734;28;20306;-69
2023/04/24 08:02:56;;;;;;;30.53;16.27;;;;;;;;;;5031058;28;20194;-69
2023/04/24 08:05:25;;;;;;;26.27;14.67;;;;;;;;;;5012772;28;20195;-69
2023/04/24 08:07:52;;;;;;;22.93;13.93;;;;;;;;;;5030929;28;20202;-69
2023/04/24 08:10:19;;;;;;;25.50;15.20;;;;;;;;;;4997511;28;20184;-69
2023/04/24 08:12:45;;;;;;;29.13;15.93;;;;;;;;;;5031088;28;20547;-69
2023/04/24 08:15:12;;;;;;;31.73;16.70;;;;;;;;;;5030775;28;20283;-69
2023/04/24 08:17:40;;;;;;;23.43;16.07;;;;;;;;;;5030724;28;20590;-69
2023/04/24 08:20:13;;;;;;;25.90;14.63;;;;;;;;;;5030802;28;20666;-69
2023/04/24 08:22:40;;;;;;;23.13;15.77;;;;;;;;;;5014322;28;20587;-69
2023/04/24 08:25:08;;;;;;;24.03;15.30;;;;;;;;;;5013346;28;20223;-69
2023/04/24 08:27:39;;;;;;;22.53;14.17;;;;;;;;;;5013477;28;20555;-69
2023/04/24 08:30:06;;;;;;;17.37;13.57;;;;;;;;;;5030522;28;20202;-69
2023/04/24 08:32:33;;;;;;;19.30;13.47;;;;;;;;;;4997174;28;20278;-69
2023/04/24 08:35:00;;;;;;;22.97;15.00;;;;;;;;;;5030679;28;20207;-69
2023/04/24 08:37:27;;;;;;;23.27;15.83;;;;;;;;;;5030706;28;20203;-69
2023/04/24 08:39:55;;;;;;;24.37;17.33;;;;;;;;;;5013236;28;20179;-69
2023/04/24 08:42:22;;;;;;;24.73;16.30;;;;;;;;;;5030492;28;20192;-69
2023/04/24 08:44:49;;;;;;;23.20;15.17;;;;;;;;;;5030355;28;20279;-69
2023/04/24 08:47:16;;;;;;;25.47;16.73;;;;;;;;;;5012466;28;20199;-69
2023/04/24 08:49:43;;;;;;;25.63;16.67;;;;;;;;;;5012168;28;20194;-69
2023/04/24 08:52:12;;;;;;;28.93;17.97;;;;;;;;;;5012761;28;20199;-69
2023/04/24 08:54:39;;;;;;;24.73;17.27;;;;;;;;;;5030474;28;20224;-69
2023/04/24 08:57:06;;;;;;;25.47;18.17;;;;;;;;;;5012424;28;20298;-69
2023/04/24 08:59:33;;;;;;;26.63;19.37;;;;;;;;;;5012763;28;20493;-68
2023/04/24 09:01:59;;;;;;;25.47;19.53;;;;;;;;;;5012558;28;20195;-69
2023/04/24 09:04:26;;;;;;;26.40;18.73;;;;;;;;;;5030069;28;20195;-69
2023/04/24 09:06:57;;;;;;;25.27;20.63;;;;;;;;;;5013053;28;20246;-69
2023/04/24 09:09:24;;;;;;;24.63;19.10;;;;;;;;;;5030101;28;20249;-68
2023/04/24 09:11:53;;;;;;;24.77;18.73;;;;;;;;;;5029799;28;20187;-69
2023/04/24 09:14:20;;;;;;;23.73;17.60;;;;;;;;;;5012708;28;20198;-69
2023/04/24 09:16:47;;;;;;;23.30;17.47;;;;;;;;;;5012206;28;20207;-69
2023/04/24 09:19:14;;;;;;;24.40;17.27;;;;;;;;;;4996015;28;20247;-69
2023/04/24 09:21:43;;;;;;;22.70;17.50;;;;;;;;;;5029808;28;20187;-69
2023/04/24 09:24:18;;;;;;;23.17;17.40;;;;;;;;;;5012555;28;20224;-69
2023/04/24 09:26:44;;;;;;;22.33;17.37;;;;;;;;;;5012269;28;20249;-70
2023/04/24 09:29:17;;;;;;;22.20;17.77;;;;;;;;;;5012243;28;20218;-69
2023/04/24 09:31:44;;;;;;;21.50;16.93;;;;;;;;;;5012268;28;20282;-70
2023/04/24 09:34:11;;;;;;;21.97;16.83;;;;;;;;;;5029782;28;20782;-69
2023/04/24 09:36:39;;;;;;;24.13;17.17;;;;;;;;;;5029544;28;20548;-69
2023/04/24 09:39:07;;;;;;;23.77;17.00;;;;;;;;;;5029437;28;20651;-69
2023/04/24 09:41:35;;;;;;;22.63;16.43;;;;;;;;;;4992769;28;20183;-69
2023/04/24 09:44:12;;;;;;;20.90;16.17;;;;;;;;;;5009565;28;20196;-69
2023/04/24 09:46:39;;;;;;;21.97;17.57;;;;;;;;;;5009666;28;20195;-69
2023/04/24 09:49:10;;;;;;;19.67;15.23;;;;;;;;;;5009814;28;20310;-69
2023/04/24 09:51:37;;;;;;;18.47;14.10;;;;;;;;;;4992433;28;20691;-70
2023/04/24 09:54:04;;;;;;;20.77;13.77;;;;;;;;;;5009609;28;20638;-69
2023/04/24 09:56:34;;;;;;;20.07;14.77;;;;;;;;;;4975717;28;20208;-69
2023/04/24 09:59:05;;;;;;;19.73;15.30;;;;;;;;;;5008850;28;20336;-70
2023/04/24 10:01:31;;;;;;;18.07;14.07;;;;;;;;;;5011003;28;20551;-70
2023/04/24 10:03:58;;;;;;;18.83;14.37;;;;;;;;;;4996516;28;20195;-70
2023/04/24 10:06:35;;;;;;;24.57;14.67;;;;;;;;;;5014003;28;20188;-70
2023/04/24 10:09:02;;;;;;;16.57;13.97;;;;;;;;;;4996081;28;20215;-70
2023/04/24 10:11:28;;;;;;;15.80;13.10;;;;;;;;;;5013580;28;20219;-68
2023/04/24 10:13:57;;;;;;;18.27;13.03;;;;;;;;;;4980070;28;20206;-67
2023/04/24 10:16:23;;;;;;;14.93;12.93;;;;;;;;;;5013439;28;20614;-68
2023/04/24 10:18:51;;;;;;;16.97;13.33;;;;;;;;;;4995479;28;20223;-69
2023/04/24 10:21:17;;;;;;;17.10;13.10;;;;;;;;;;5015645;28;20651;-68
2023/04/24 10:23:46;;;;;;;16.83;13.43;;;;;;;;;;5032740;28;20198;-69
2023/04/24 10:26:17;;;;;;;18.00;12.57;;;;;;;;;;5033160;28;20199;-69
2023/04/24 10:28:44;;;;;;;14.37;12.13;;;;;;;;;;5032871;28;20211;-69
2023/04/24 10:31:11;;;;;;;14.53;12.20;;;;;;;;;;5015491;28;20199;-69
2023/04/24 10:33:40;;;;;;;16.77;12.53;;;;;;;;;;5015465;28;20200;-69
2023/04/24 10:36:07;;;;;;;15.47;12.93;;;;;;;;;;5015552;28;20215;-69
2023/04/24 10:38:34;;;;;;;17.80;13.20;;;;;;;;;;5032624;28;20679;-69
2023/04/24 10:41:15;;;;;;;16.93;13.00;;;;;;;;;;5010209;28;20187;-69
2023/04/24 10:43:43;;;;;;;16.10;12.70;;;;;;;;;;5015855;28;20191;-71
2023/04/24 10:46:10;;;;;;;15.30;12.07;;;;;;;;;;5032768;28;20686;-71
2023/04/24 10:48:41;;;;;;;15.23;11.57;;;;;;;;;;5014645;28;20288;-70
2023/04/24 10:51:10;;;;;;;13.87;11.47;;;;;;;;;;4998527;28;20254;-70
2023/04/24 10:53:38;;;;;;;13.30;11.20;;;;;;;;;;5032360;28;20215;-70
2023/04/24 10:56:06;;;;;;;13.03;11.50;;;;;;;;;;5032540;28;20208;-70
2023/04/24 10:58:52;;;;;;;16.13;13.00;;;;;;;;;;5014765;28;20191;-70
2023/04/24 11:01:28;;;;;;;16.23;12.50;;;;;;;;;;5032438;28;20710;-69
2023/04/24 11:03:56;;;;;;;16.83;12.77;;;;;;;;;;5032341;28;20194;-69
2023/04/24 11:06:33;;;;;;;16.03;12.53;;;;;;;;;;5015215;28;20226;-69
2023/04/24 11:09:05;;;;;;;16.20;12.90;;;;;;;;;;5014425;28;20617;-69
2023/04/24 11:11:31;;;;;;;15.97;12.97;;;;;;;;;;5014958;28;20567;-70
2023/04/24 11:13:58;;;;;;;18.00;13.53;;;;;;;;;;5014151;28;20678;-70
2023/04/24 11:16:28;;;;;;;14.83;12.07;;;;;;;;;;5014291;28;20325;-70
2023/04/24 11:19:02;;;;;;;15.37;12.27;;;;;;;;;;5014777;28;20229;-69
2023/04/24 11:21:38;;;;;;;14.40;11.50;;;;;;;;;;5032075;28;20721;-70
2023/04/24 11:24:24;;;;;;;13.13;11.37;;;;;;;;;;4998321;28;20278;-70
2023/04/24 11:26:53;;;;;;;13.47;10.20;;;;;;;;;;5031847;28;20542;-69
2023/04/24 11:29:20;;;;;;;12.40;10.93;;;;;;;;;;5032131;28;20670;-69
2023/04/24 11:31:49;;;;;;;16.47;10.93;;;;;;;;;;5014382;28;20667;-70
2023/04/24 11:34:16;;;;;;;15.00;12.00;;;;;;;;;;5014512;28;20183;-69
2023/04/24 11:36:43;;;;;;;15.23;12.17;;;;;;;;;;5031591;28;20612;-70
2023/04/24 11:39:11;;;;;;;14.07;11.37;;;;;;;;;;5031748;28;20214;-69
2023/04/24 11:41:37;;;;;;;15.23;11.33;;;;;;;;;;5007474;28;20286;-69
2023/04/24 11:44:05;;;;;;;14.23;11.07;;;;;;;;;;5011776;28;20188;-69
2023/04/24 11:46:32;;;;;;;14.73;10.40;;;;;;;;;;4994362;28;20192;-69
2023/04/24 11:48:59;;;;;;;14.00;10.60;;;;;;;;;;4994679;28;20192;-69
2023/04/24 11:51:27;;;;;;;13.60;9.80;;;;;;;;;;5011700;28;20544;-69
2023/04/24 11:54:01;;;;;;;12.07;10.20;;;;;;;;;;5011581;28;20187;-69
2023/04/24 11:56:30;;;;;;;13.20;9.80;;;;;;;;;;4994296;28;20204;-70
2023/04/24 11:58:56;;;;;;;10.33;8.63;;;;;;;;;;4994173;28;20196;-69
2023/04/24 12:01:24;;;;;;;13.07;9.40;;;;;;;;;;5011926;28;20212;-69
2023/04/24 12:03:51;;;;;;;10.43;7.60;;;;;;;;;;4994263;28;20194;-69
2023/04/24 12:06:19;;;;;;;7.37;5.47;;;;;;;;;;4994129;28;20200;-69
2023/04/24 12:08:46;;;;;;;5.80;5.00;;;;;;;;;;5011344;28;20192;-68
2023/04/24 12:11:14;;;;;;;7.63;4.93;;;;;;;;;;4977994;28;20192;-68
2023/04/24 12:13:41;;;;;;;8.63;5.63;;;;;;;;;;4993808;28;20215;-69
2023/04/24 12:16:07;;;;;;;5.27;4.47;;;;;;;;;;5011289;28;20188;-68
2023/04/24 12:18:34;;;;;;;5.60;4.67;;;;;;;;;;4990220;28;20216;-68
2023/04/24 12:21:20;;;;;;;6.30;4.87;;;;;;;;;;4974303;28;20181;-68
2023/04/24 12:23:50;;;;;;;4.70;4.20;;;;;;;;;;4973990;28;20280;-68
2023/04/24 12:26:21;;;;;;;6.57;4.47;;;;;;;;;;4991567;28;20275;-69
2023/04/24 12:28:51;;;;;;;5.20;4.27;;;;;;;;;;4991521;28;20205;-69
2023/04/24 12:31:18;;;;;;;6.93;4.40;;;;;;;;;;4990293;28;20204;-68
2023/04/24 12:33:45;;;;;;;8.27;4.23;;;;;;;;;;4974223;28;20268;-69
2023/04/24 12:36:12;;;;;;;4.87;4.20;;;;;;;;;;4991195;28;20193;-68
2023/04/24 12:38:44;;;;;;;8.07;4.80;;;;;;;;;;4991372;28;20196;-69
2023/04/24 12:41:11;;;;;;;6.00;4.90;;;;;;;;;;5007231;28;20194;-68
2023/04/24 12:43:38;;;;;;;9.27;4.63;;;;;;;;;;4993442;28;20184;-69
2023/04/24 12:46:05;;;;;;;8.43;5.00;;;;;;;;;;4993362;28;20184;-68
2023/04/24 12:48:32;;;;;;;6.50;4.10;;;;;;;;;;5010554;28;20211;-69
2023/04/24 12:51:01;;;;;;;6.17;3.97;;;;;;;;;;5010953;28;20184;-69
2023/04/24 12:53:29;;;;;;;6.07;3.93;;;;;;;;;;4993287;28;20271;-69
2023/04/24 12:55:56;;;;;;;8.27;3.70;;;;;;;;;;4993198;28;20595;-68
2023/04/24 12:58:23;;;;;;;5.03;3.70;;;;;;;;;;5010511;28;20270;-69
2023/04/24 13:00:50;;;;;;;5.47;3.17;;;;;;;;;;5009015;28;20204;-68
2023/04/24 13:03:16;;;;;;;5.77;3.67;;;;;;;;;;5009160;28;20742;-69
2023/04/24 13:05:43;;;;;;;5.20;3.40;;;;;;;;;;5010408;28;20193;-69
2023/04/24 13:08:10;;;;;;;6.33;3.70;;;;;;;;;;5010352;28;20187;-69
2023/04/24 13:10:42;;;;;;;7.57;3.60;;;;;;;;;;5009964;28;20195;-69
2023/04/24 13:13:09;;;;;;;5.93;4.03;;;;;;;;;;4993010;28;20279;-69
2023/04/24 13:15:36;;;;;;;4.17;3.63;;;;;;;;;;5009978;28;20189;-69
2023/04/24 13:18:03;;;;;;;4.63;3.50;;;;;;;;;;5019642;28;20261;-69
2023/04/24 13:20:30;;;;;;;10.27;4.13;;;;;;;;;;5029657;28;20551;-69
2023/04/24 13:22:57;;;;;;;6.40;3.80;;;;;;;;;;5012466;28;20184;-69
2023/04/24 13:25:24;;;;;;;9.20;3.80;;;;;;;;;;5029626;28;20207;-69
2023/04/24 13:27:52;;;;;;;4.47;3.33;;;;;;;;;;5029896;28;20654;-69
2023/04/24 13:30:19;;;;;;;9.03;3.43;;;;;;;;;;5011943;28;20197;-69
2023/04/24 13:32:46;;;;;;;6.30;3.50;;;;;;;;;;5029840;28;20195;-69
2023/04/24 13:35:13;;;;;;;5.67;3.73;;;;;;;;;;5029609;28;20192;-68
2023/04/24 13:37:39;;;;;;;3.70;3.30;;;;;;;;;;5012124;28;20776;-69
2023/04/24 13:40:06;;;;;;;5.03;3.20;;;;;;;;;;5029668;28;20207;-68
2023/04/24 13:42:33;;;;;;;4.33;3.50;;;;;;;;;;5029470;28;20198;-68
2023/04/24 13:45:00;;;;;;;11.27;3.70;;;;;;;;;;5029350;28;20191;-69
2023/04/24 13:47:40;;;;;;;5.73;3.43;;;;;;;;;;5013874;28;20613;-68
2023/04/24 13:50:08;;;;;;;5.40;2.97;;;;;;;;;;5029366;28;20261;-69
2023/04/24 13:52:35;;;;;;;7.23;3.40;;;;;;;;;;5029407;28;20196;-68
2023/04/24 13:55:02;;;;;;;4.87;2.93;;;;;;;;;;5012051;28;20209;-68
2023/04/24 13:57:30;;;;;;;4.97;3.40;;;;;;;;;;5011804;28;20200;-68
2023/04/24 14:00:00;;;;;;;4.90;3.47;;;;;;;;;;5029430;28;20194;-68
2023/04/24 14:02:32;;;;;;;3.43;3.13;;;;;;;;;;5012722;28;20287;-69
2023/04/24 14:04:59;;;;;;;4.10;3.00;;;;;;;;;;5029357;28;20191;-68
2023/04/24 14:07:26;;;;;;;4.40;3.10;;;;;;;;;;5029189;28;20198;-68
2023/04/24 14:09:53;;;;;;;4.03;3.20;;;;;;;;;;5029420;28;20205;-68
2023/04/24 14:12:19;;;;;;;5.20;3.57;;;;;;;;;;5011534;28;20589;-69
2023/04/24 14:14:48;;;;;;;4.00;3.60;;;;;;;;;;5029094;28;20179;-69
2023/04/24 14:17:14;;;;;;;6.13;4.57;;;;;;;;;;5028906;28;20251;-69
2023/04/24 14:19:41;;;;;;;5.63;3.83;;;;;;;;;;5029286;28;20192;-68
2023/04/24 14:22:09;;;;;;;5.10;3.60;;;;;;;;;;5029273;28;20658;-68
2023/04/24 14:24:36;;;;;;;5.17;3.53;;;;;;;;;;5029023;28;20659;-68
2023/04/24 14:27:02;;;;;;;5.47;4.13;;;;;;;;;;5029103;28;20183;-69
2023/04/24 14:29:29;;;;;;;5.00;3.70;;;;;;;;;;5029063;28;20542;-69
2023/04/24 14:31:57;;;;;;;6.00;4.10;;;;;;;;;;5011744;28;20188;-68
2023/04/24 14:34:24;;;;;;;7.10;3.93;;;;;;;;;;5029177;28;20200;-69
2023/04/24 14:36:51;;;;;;;6.20;3.83;;;;;;;;;;5011453;28;20191;-68
2023/04/24 14:39:18;;;;;;;6.00;3.90;;;;;;;;;;5029028;28;20195;-68
2023/04/24 14:41:48;;;;;;;5.73;3.97;;;;;;;;;;5028973;28;20187;-68
2023/04/24 14:44:15;;;;;;;6.13;4.13;;;;;;;;;;5011834;28;20191;-67
2023/04/24 14:46:42;;;;;;;7.67;4.50;;;;;;;;;;5028862;28;20198;-68
2023/04/24 14:49:09;;;;;;;4.63;3.80;;;;;;;;;;5015204;28;20559;-68
2023/04/24 14:51:36;;;;;;;6.33;4.20;;;;;;;;;;5032594;28;20208;-68
2023/04/24 14:54:03;;;;;;;4.47;4.07;;;;;;;;;;5032618;28;20265;-67
2023/04/24 14:56:29;;;;;;;7.33;4.57;;;;;;;;;;5032548;28;20210;-69
2023/04/24 14:58:56;;;;;;;9.77;4.70;;;;;;;;;;5014874;28;20211;-70
2023/04/24 15:01:23;;;;;;;8.07;4.97;;;;;;;;;;5032444;28;20179;-69
2023/04/24 15:03:50;;;;;;;8.83;5.60;;;;;;;;;;5032363;28;20223;-68